Terminal Aerodrome Forecast
Issued by NWS

Current Version | Previous Version | Graphics & Text | Print | Product List | Glossary On
Versions: 1 2 3 4 5 6 7 8 9 10 11 12 13 14 15 16 17 18 19 20 21 22 23 24 25 26 27 28 29 30 31 32 33 34 35 36 37 38 39 40 41 42 43 44
000
FTUS41 KRNK 030907 AAA
TAFLWB
TAF AMD
KLWB 030907Z 0309/0406 VRB03KT 4SM BR VCSH SCT002 OVC025
      TEMPO 0309/0312 BKN002
     FM031500 VRB03KT P6SM VCSH BKN015
     FM031900 18005KT P6SM -SHRA VCTS BKN030CB
      TEMPO 0319/0323 2SM -SHRA BR OVC015
     FM040300 VRB03KT 5SM BR BKN020=

USA.gov is the U.S. government's official web portal to all federal, state and local government web resources and services.